sensor_id;sensor_type;location;lat;lon;timestamp;P1;durP1;ratioP1;P2;durP2;ratioP2
66542;SDS011;53395;37.360;-122.046;2023-07-29T00:01:22;8.13;;;2.00;;
66542;SDS011;53395;37.360;-122.046;2023-07-29T00:04:07;9.05;;;2.60;;
66542;SDS011;53395;37.360;-122.046;2023-07-29T00:06:53;10.05;;;2.20;;
66542;SDS011;53395;37.360;-122.046;2023-07-29T00:09:37;10.18;;;2.40;;
66542;SDS011;53395;37.360;-122.046;2023-07-29T00:12:22;12.18;;;2.47;;
66542;SDS011;53395;37.360;-122.046;2023-07-29T00:15:07;9.45;;;2.50;;
66542;SDS011;53395;37.360;-122.046;2023-07-29T00:17:52;8.45;;;2.40;;
66542;SDS011;53395;37.360;-122.046;2023-07-29T00:20:36;9.10;;;2.55;;
66542;SDS011;53395;37.360;-122.046;2023-07-29T00:23:21;8.73;;;2.45;;
66542;SDS011;53395;37.360;-122.046;2023-07-29T00:26:05;10.65;;;2.65;;
66542;SDS011;53395;37.360;-122.046;2023-07-29T00:28:50;12.55;;;2.88;;
66542;SDS011;53395;37.360;-122.046;2023-07-29T00:31:35;11.65;;;2.58;;
66542;SDS011;53395;37.360;-122.046;2023-07-29T00:34:19;12.05;;;2.55;;
66542;SDS011;53395;37.360;-122.046;2023-07-29T00:37:04;12.23;;;2.78;;
66542;SDS011;53395;37.360;-122.046;2023-07-29T00:39:50;10.82;;;2.72;;
66542;SDS011;53395;37.360;-122.046;2023-07-29T00:42:34;13.85;;;2.72;;
66542;SDS011;53395;37.360;-122.046;2023-07-29T00:45:18;10.43;;;2.47;;
66542;SDS011;53395;37.360;-122.046;2023-07-29T00:48:03;12.10;;;2.33;;
66542;SDS011;53395;37.360;-122.046;2023-07-29T00:50:48;10.57;;;2.60;;
66542;SDS011;53395;37.360;-122.046;2023-07-29T00:53:33;8.50;;;2.55;;
66542;SDS011;53395;37.360;-122.046;2023-07-29T00:56:17;14.98;;;2.95;;
66542;SDS011;53395;37.360;-122.046;2023-07-29T00:59:02;9.55;;;2.70;;
66542;SDS011;53395;37.360;-122.046;2023-07-29T01:01:46;12.27;;;2.42;;
66542;SDS011;53395;37.360;-122.046;2023-07-29T01:04:31;13.27;;;2.78;;
66542;SDS011;53395;37.360;-122.046;2023-07-29T01:10:01;11.38;;;2.53;;
66542;SDS011;53395;37.360;-122.046;2023-07-29T01:13:06;12.73;;;3.25;;
66542;SDS011;53395;37.360;-122.046;2023-07-29T01:18:37;10.63;;;2.78;;
66542;SDS011;53395;37.360;-122.046;2023-07-29T01:21:23;13.85;;;2.65;;
66542;SDS011;53395;37.360;-122.046;2023-07-29T01:24:10;10.25;;;2.35;;
66542;SDS011;53395;37.360;-122.046;2023-07-29T01:26:55;12.60;;;2.80;;
66542;SDS011;53395;37.360;-122.046;2023-07-29T01:29:39;15.55;;;2.92;;
66542;SDS011;53395;37.360;-122.046;2023-07-29T01:32:29;13.80;;;2.92;;
66542;SDS011;53395;37.360;-122.046;2023-07-29T01:38:13;12.65;;;3.35;;
66542;SDS011;53395;37.360;-122.046;2023-07-29T01:40:59;13.32;;;3.15;;
66542;SDS011;53395;37.360;-122.046;2023-07-29T01:43:45;13.68;;;3.45;;
66542;SDS011;53395;37.360;-122.046;2023-07-29T01:49:14;7.07;;;2.53;;
66542;SDS011;53395;37.360;-122.046;2023-07-29T01:51:59;12.27;;;2.60;;
66542;SDS011;53395;37.360;-122.046;2023-07-29T01:54:43;13.85;;;2.10;;
66542;SDS011;53395;37.360;-122.046;2023-07-29T01:57:28;13.38;;;3.10;;
66542;SDS011;53395;37.360;-122.046;2023-07-29T02:00:12;12.30;;;3.17;;
66542;SDS011;53395;37.360;-122.046;2023-07-29T02:02:57;14.93;;;2.88;;
66542;SDS011;53395;37.360;-122.046;2023-07-29T02:05:41;10.90;;;2.53;;
66542;SDS011;53395;37.360;-122.046;2023-07-29T02:08:27;12.93;;;2.42;;
66542;SDS011;53395;37.360;-122.046;2023-07-29T02:11:12;16.52;;;2.45;;
66542;SDS011;53395;37.360;-122.046;2023-07-29T02:13:57;14.00;;;2.55;;
66542;SDS011;53395;37.360;-122.046;2023-07-29T02:16:42;15.30;;;2.83;;
66542;SDS011;53395;37.360;-122.046;2023-07-29T02:19:26;12.25;;;2.65;;
66542;SDS011;53395;37.360;-122.046;2023-07-29T02:22:12;10.20;;;2.05;;
66542;SDS011;53395;37.360;-122.046;2023-07-29T02:24:57;13.85;;;2.65;;
66542;SDS011;53395;37.360;-122.046;2023-07-29T02:27:42;11.50;;;2.47;;
66542;SDS011;53395;37.360;-122.046;2023-07-29T02:30:27;11.60;;;1.88;;
66542;SDS011;53395;37.360;-122.046;2023-07-29T02:33:11;13.82;;;2.95;;
66542;SDS011;53395;37.360;-122.046;2023-07-29T02:35:56;11.77;;;2.65;;
66542;SDS011;53395;37.360;-122.046;2023-07-29T02:38:40;11.68;;;2.40;;
66542;SDS011;53395;37.360;-122.046;2023-07-29T02:41:25;16.45;;;3.00;;
66542;SDS011;53395;37.360;-122.046;2023-07-29T02:44:10;16.58;;;2.90;;
66542;SDS011;53395;37.360;-122.046;2023-07-29T02:46:55;11.50;;;3.00;;
66542;SDS011;53395;37.360;-122.046;2023-07-29T02:49:40;10.07;;;2.35;;
66542;SDS011;53395;37.360;-122.046;2023-07-29T02:52:25;11.80;;;2.58;;
66542;SDS011;53395;37.360;-122.046;2023-07-29T02:55:09;11.50;;;2.63;;
66542;SDS011;53395;37.360;-122.046;2023-07-29T02:57:53;15.13;;;2.80;;
66542;SDS011;53395;37.360;-122.046;2023-07-29T03:00:38;10.48;;;2.13;;
66542;SDS011;53395;37.360;-122.046;2023-07-29T03:03:25;10.70;;;2.70;;
66542;SDS011;53395;37.360;-122.046;2023-07-29T03:06:11;11.27;;;2.58;;
66542;SDS011;53395;37.360;-122.046;2023-07-29T03:08:55;13.60;;;2.97;;
66542;SDS011;53395;37.360;-122.046;2023-07-29T03:11:40;12.02;;;2.50;;
66542;SDS011;53395;37.360;-122.046;2023-07-29T03:14:24;11.52;;;2.55;;
66542;SDS011;53395;37.360;-122.046;2023-07-29T03:17:09;9.68;;;2.58;;
66542;SDS011;53395;37.360;-122.046;2023-07-29T03:19:54;10.30;;;1.95;;
66542;SDS011;53395;37.360;-122.046;2023-07-29T03:22:38;10.63;;;2.40;;
66542;SDS011;53395;37.360;-122.046;2023-07-29T03:25:23;10.38;;;2.53;;
66542;SDS011;53395;37.360;-122.046;2023-07-29T03:28:07;11.63;;;2.58;;
66542;SDS011;53395;37.360;-122.046;2023-07-29T03:30:52;8.70;;;2.17;;
66542;SDS011;53395;37.360;-122.046;2023-07-29T03:33:36;8.88;;;2.50;;
66542;SDS011;53395;37.360;-122.046;2023-07-29T03:36:21;11.40;;;2.53;;
66542;SDS011;53395;37.360;-122.046;2023-07-29T03:39:06;8.35;;;2.10;;
66542;SDS011;53395;37.360;-122.046;2023-07-29T03:41:51;11.18;;;2.15;;
66542;SDS011;53395;37.360;-122.046;2023-07-29T03:44:36;8.68;;;2.22;;
66542;SDS011;53395;37.360;-122.046;2023-07-29T03:47:23;10.00;;;2.10;;
66542;SDS011;53395;37.360;-122.046;2023-07-29T03:50:08;10.73;;;2.20;;
66542;SDS011;53395;37.360;-122.046;2023-07-29T03:52:52;12.35;;;2.38;;
66542;SDS011;53395;37.360;-122.046;2023-07-29T03:55:37;12.75;;;2.28;;
66542;SDS011;53395;37.360;-122.046;2023-07-29T03:58:21;12.57;;;3.10;;
66542;SDS011;53395;37.360;-122.046;2023-07-29T04:01:06;8.95;;;2.28;;
66542;SDS011;53395;37.360;-122.046;2023-07-29T04:03:50;11.73;;;2.33;;
66542;SDS011;53395;37.360;-122.046;2023-07-29T04:06:36;11.52;;;2.47;;
66542;SDS011;53395;37.360;-122.046;2023-07-29T04:09:20;11.85;;;2.55;;
66542;SDS011;53395;37.360;-122.046;2023-07-29T04:12:05;13.43;;;2.15;;
66542;SDS011;53395;37.360;-122.046;2023-07-29T04:14:50;10.30;;;2.20;;
66542;SDS011;53395;37.360;-122.046;2023-07-29T04:17:34;12.55;;;2.67;;
66542;SDS011;53395;37.360;-122.046;2023-07-29T04:20:18;11.23;;;2.22;;
66542;SDS011;53395;37.360;-122.046;2023-07-29T04:23:03;12.48;;;2.30;;
66542;SDS011;53395;37.360;-122.046;2023-07-29T04:25:47;15.10;;;2.10;;
66542;SDS011;53395;37.360;-122.046;2023-07-29T04:28:33;8.93;;;2.13;;
66542;SDS011;53395;37.360;-122.046;2023-07-29T04:31:18;13.07;;;2.65;;
66542;SDS011;53395;37.360;-122.046;2023-07-29T04:34:04;12.98;;;2.60;;
66542;SDS011;53395;37.360;-122.046;2023-07-29T04:36:48;11.45;;;2.53;;
66542;SDS011;53395;37.360;-122.046;2023-07-29T04:39:33;14.15;;;2.60;;
66542;SDS011;53395;37.360;-122.046;2023-07-29T04:42:17;16.40;;;2.97;;
66542;SDS011;53395;37.360;-122.046;2023-07-29T04:45:02;10.55;;;2.30;;
66542;SDS011;53395;37.360;-122.046;2023-07-29T04:47:46;10.05;;;2.30;;
66542;SDS011;53395;37.360;-122.046;2023-07-29T04:50:30;13.60;;;2.67;;
66542;SDS011;53395;37.360;-122.046;2023-07-29T04:53:15;11.88;;;2.53;;
66542;SDS011;53395;37.360;-122.046;2023-07-29T04:55:59;11.52;;;2.20;;
66542;SDS011;53395;37.360;-122.046;2023-07-29T04:58:43;9.85;;;2.53;;
66542;SDS011;53395;37.360;-122.046;2023-07-29T05:01:28;13.25;;;2.70;;
66542;SDS011;53395;37.360;-122.046;2023-07-29T05:04:13;15.07;;;2.67;;
66542;SDS011;53395;37.360;-122.046;2023-07-29T05:06:58;13.50;;;2.58;;
66542;SDS011;53395;37.360;-122.046;2023-07-29T05:09:43;11.50;;;2.40;;
66542;SDS011;53395;37.360;-122.046;2023-07-29T05:12:28;9.32;;;2.17;;
66542;SDS011;53395;37.360;-122.046;2023-07-29T05:15:13;14.27;;;2.70;;
66542;SDS011;53395;37.360;-122.046;2023-07-29T05:17:58;10.65;;;2.50;;
66542;SDS011;53395;37.360;-122.046;2023-07-29T05:20:42;15.43;;;2.50;;
66542;SDS011;53395;37.360;-122.046;2023-07-29T05:23:27;11.85;;;2.60;;
66542;SDS011;53395;37.360;-122.046;2023-07-29T05:26:11;12.30;;;2.13;;
66542;SDS011;53395;37.360;-122.046;2023-07-29T05:28:56;13.63;;;2.88;;
66542;SDS011;53395;37.360;-122.046;2023-07-29T05:31:40;15.90;;;2.72;;
66542;SDS011;53395;37.360;-122.046;2023-07-29T05:34:25;12.10;;;2.50;;
66542;SDS011;53395;37.360;-122.046;2023-07-29T05:37:09;12.82;;;2.83;;
66542;SDS011;53395;37.360;-122.046;2023-07-29T05:39:54;10.65;;;2.10;;
66542;SDS011;53395;37.360;-122.046;2023-07-29T05:42:39;12.77;;;3.15;;
66542;SDS011;53395;37.360;-122.046;2023-07-29T05:45:23;10.45;;;2.10;;
66542;SDS011;53395;37.360;-122.046;2023-07-29T05:48:07;9.00;;;2.30;;
66542;SDS011;53395;37.360;-122.046;2023-07-29T05:50:52;15.52;;;2.67;;
66542;SDS011;53395;37.360;-122.046;2023-07-29T05:53:36;14.27;;;2.75;;
66542;SDS011;53395;37.360;-122.046;2023-07-29T05:56:21;13.77;;;2.63;;
66542;SDS011;53395;37.360;-122.046;2023-07-29T05:59:06;10.93;;;3.00;;
66542;SDS011;53395;37.360;-122.046;2023-07-29T06:01:50;12.52;;;2.40;;
66542;SDS011;53395;37.360;-122.046;2023-07-29T06:04:35;8.73;;;1.92;;
66542;SDS011;53395;37.360;-122.046;2023-07-29T06:07:19;9.48;;;2.33;;
66542;SDS011;53395;37.360;-122.046;2023-07-29T06:10:04;12.82;;;3.13;;
66542;SDS011;53395;37.360;-122.046;2023-07-29T06:12:49;13.50;;;2.58;;
66542;SDS011;53395;37.360;-122.046;2023-07-29T06:15:33;12.23;;;2.40;;
66542;SDS011;53395;37.360;-122.046;2023-07-29T06:18:18;10.88;;;2.63;;
66542;SDS011;53395;37.360;-122.046;2023-07-29T06:21:02;12.48;;;2.47;;
66542;SDS011;53395;37.360;-122.046;2023-07-29T06:23:51;9.25;;;2.30;;
66542;SDS011;53395;37.360;-122.046;2023-07-29T06:26:36;11.32;;;2.55;;
66542;SDS011;53395;37.360;-122.046;2023-07-29T06:29:20;11.68;;;2.33;;
66542;SDS011;53395;37.360;-122.046;2023-07-29T06:32:05;12.52;;;2.53;;
66542;SDS011;53395;37.360;-122.046;2023-07-29T06:34:50;8.82;;;2.42;;
66542;SDS011;53395;37.360;-122.046;2023-07-29T06:37:36;9.88;;;2.80;;
66542;SDS011;53395;37.360;-122.046;2023-07-29T06:40:20;11.35;;;2.75;;
66542;SDS011;53395;37.360;-122.046;2023-07-29T06:43:04;11.80;;;2.83;;
66542;SDS011;53395;37.360;-122.046;2023-07-29T06:45:49;13.68;;;2.70;;
66542;SDS011;53395;37.360;-122.046;2023-07-29T06:48:34;11.63;;;2.53;;
66542;SDS011;53395;37.360;-122.046;2023-07-29T06:51:18;10.23;;;2.60;;
66542;SDS011;53395;37.360;-122.046;2023-07-29T06:54:03;17.50;;;2.97;;
66542;SDS011;53395;37.360;-122.046;2023-07-29T06:56:47;12.25;;;2.63;;
66542;SDS011;53395;37.360;-122.046;2023-07-29T06:59:31;15.18;;;2.70;;
66542;SDS011;53395;37.360;-122.046;2023-07-29T07:02:15;10.32;;;2.63;;
66542;SDS011;53395;37.360;-122.046;2023-07-29T07:05:00;17.50;;;3.38;;
66542;SDS011;53395;37.360;-122.046;2023-07-29T07:07:44;11.90;;;2.60;;
66542;SDS011;53395;37.360;-122.046;2023-07-29T07:10:29;13.30;;;2.72;;
66542;SDS011;53395;37.360;-122.046;2023-07-29T07:13:14;14.50;;;3.00;;
66542;SDS011;53395;37.360;-122.046;2023-07-29T07:15:58;11.95;;;2.72;;
66542;SDS011;53395;37.360;-122.046;2023-07-29T07:18:43;9.98;;;2.30;;
66542;SDS011;53395;37.360;-122.046;2023-07-29T07:21:27;9.68;;;2.58;;
66542;SDS011;53395;37.360;-122.046;2023-07-29T07:24:12;10.93;;;2.33;;
66542;SDS011;53395;37.360;-122.046;2023-07-29T07:26:56;16.08;;;2.83;;
66542;SDS011;53395;37.360;-122.046;2023-07-29T07:29:41;11.13;;;2.55;;
66542;SDS011;53395;37.360;-122.046;2023-07-29T07:32:25;15.07;;;2.80;;
66542;SDS011;53395;37.360;-122.046;2023-07-29T07:35:10;13.15;;;2.70;;
66542;SDS011;53395;37.360;-122.046;2023-07-29T07:37:55;13.63;;;2.80;;
66542;SDS011;53395;37.360;-122.046;2023-07-29T07:40:39;11.77;;;2.90;;
66542;SDS011;53395;37.360;-122.046;2023-07-29T07:43:24;11.20;;;2.90;;
66542;SDS011;53395;37.360;-122.046;2023-07-29T07:46:09;12.65;;;3.38;;
66542;SDS011;53395;37.360;-122.046;2023-07-29T07:48:53;14.40;;;3.28;;
66542;SDS011;53395;37.360;-122.046;2023-07-29T07:51:38;14.57;;;4.03;;
66542;SDS011;53395;37.360;-122.046;2023-07-29T07:54:22;20.40;;;4.10;;
66542;SDS011;53395;37.360;-122.046;2023-07-29T07:57:07;15.90;;;3.25;;
66542;SDS011;53395;37.360;-122.046;2023-07-29T07:59:51;21.17;;;3.67;;
66542;SDS011;53395;37.360;-122.046;2023-07-29T08:02:36;12.73;;;2.95;;
66542;SDS011;53395;37.360;-122.046;2023-07-29T08:05:20;13.20;;;3.20;;
66542;SDS011;53395;37.360;-122.046;2023-07-29T08:08:05;14.48;;;3.75;;
66542;SDS011;53395;37.360;-122.046;2023-07-29T08:10:49;20.50;;;3.85;;
66542;SDS011;53395;37.360;-122.046;2023-07-29T08:13:34;16.35;;;3.92;;
66542;SDS011;53395;37.360;-122.046;2023-07-29T08:16:19;11.65;;;3.20;;
66542;SDS011;53395;37.360;-122.046;2023-07-29T08:19:03;13.88;;;3.13;;
66542;SDS011;53395;37.360;-122.046;2023-07-29T08:21:48;18.77;;;3.63;;
66542;SDS011;53395;37.360;-122.046;2023-07-29T08:24:33;13.48;;;3.75;;
66542;SDS011;53395;37.360;-122.046;2023-07-29T08:27:18;12.15;;;3.13;;
66542;SDS011;53395;37.360;-122.046;2023-07-29T08:30:03;14.05;;;3.45;;
66542;SDS011;53395;37.360;-122.046;2023-07-29T08:32:47;19.63;;;4.15;;
66542;SDS011;53395;37.360;-122.046;2023-07-29T08:35:32;14.68;;;3.35;;
66542;SDS011;53395;37.360;-122.046;2023-07-29T08:38:16;14.85;;;3.38;;
66542;SDS011;53395;37.360;-122.046;2023-07-29T08:41:10;15.27;;;3.72;;
66542;SDS011;53395;37.360;-122.046;2023-07-29T08:46:44;23.02;;;3.85;;
66542;SDS011;53395;37.360;-122.046;2023-07-29T08:49:29;16.42;;;3.88;;
66542;SDS011;53395;37.360;-122.046;2023-07-29T08:52:14;16.33;;;3.67;;
66542;SDS011;53395;37.360;-122.046;2023-07-29T08:54:59;15.93;;;3.75;;
66542;SDS011;53395;37.360;-122.046;2023-07-29T08:57:43;16.20;;;4.30;;
66542;SDS011;53395;37.360;-122.046;2023-07-29T09:00:28;16.30;;;3.78;;
66542;SDS011;53395;37.360;-122.046;2023-07-29T09:03:12;17.73;;;3.78;;
66542;SDS011;53395;37.360;-122.046;2023-07-29T09:05:57;20.23;;;4.07;;
66542;SDS011;53395;37.360;-122.046;2023-07-29T09:08:43;15.02;;;4.57;;
66542;SDS011;53395;37.360;-122.046;2023-07-29T09:11:28;13.85;;;3.35;;
66542;SDS011;53395;37.360;-122.046;2023-07-29T09:14:13;13.57;;;3.70;;
66542;SDS011;53395;37.360;-122.046;2023-07-29T09:16:57;14.60;;;3.67;;
66542;SDS011;53395;37.360;-122.046;2023-07-29T09:19:46;14.90;;;3.70;;
66542;SDS011;53395;37.360;-122.046;2023-07-29T09:22:31;12.68;;;3.60;;
66542;SDS011;53395;37.360;-122.046;2023-07-29T09:25:15;14.98;;;3.45;;
66542;SDS011;53395;37.360;-122.046;2023-07-29T09:28:01;18.02;;;4.13;;
66542;SDS011;53395;37.360;-122.046;2023-07-29T09:30:45;12.98;;;3.30;;
66542;SDS011;53395;37.360;-122.046;2023-07-29T09:33:34;24.35;;;4.90;;
66542;SDS011;53395;37.360;-122.046;2023-07-29T09:36:20;18.83;;;4.18;;
66542;SDS011;53395;37.360;-122.046;2023-07-29T09:39:10;19.50;;;3.75;;
66542;SDS011;53395;37.360;-122.046;2023-07-29T09:41:54;10.23;;;3.13;;
66542;SDS011;53395;37.360;-122.046;2023-07-29T09:44:39;15.43;;;3.58;;
66542;SDS011;53395;37.360;-122.046;2023-07-29T09:47:24;14.63;;;4.10;;
66542;SDS011;53395;37.360;-122.046;2023-07-29T09:52:54;14.98;;;3.67;;
66542;SDS011;53395;37.360;-122.046;2023-07-29T09:55:38;15.65;;;3.97;;
66542;SDS011;53395;37.360;-122.046;2023-07-29T09:58:26;17.58;;;4.32;;
66542;SDS011;53395;37.360;-122.046;2023-07-29T10:01:12;21.83;;;4.38;;
66542;SDS011;53395;37.360;-122.046;2023-07-29T10:03:56;20.40;;;4.50;;
66542;SDS011;53395;37.360;-122.046;2023-07-29T10:06:43;19.20;;;4.22;;
66542;SDS011;53395;37.360;-122.046;2023-07-29T10:09:30;16.40;;;4.50;;
66542;SDS011;53395;37.360;-122.046;2023-07-29T10:12:15;17.73;;;4.22;;
66542;SDS011;53395;37.360;-122.046;2023-07-29T10:15:00;20.15;;;4.30;;
66542;SDS011;53395;37.360;-122.046;2023-07-29T10:17:45;25.80;;;5.32;;
66542;SDS011;53395;37.360;-122.046;2023-07-29T10:20:30;23.30;;;4.43;;
66542;SDS011;53395;37.360;-122.046;2023-07-29T10:23:16;15.27;;;3.90;;
66542;SDS011;53395;37.360;-122.046;2023-07-29T10:26:04;19.27;;;4.10;;
66542;SDS011;53395;37.360;-122.046;2023-07-29T10:28:49;16.92;;;3.97;;
66542;SDS011;53395;37.360;-122.046;2023-07-29T10:31:35;17.58;;;3.85;;
66542;SDS011;53395;37.360;-122.046;2023-07-29T10:34:21;20.17;;;4.70;;
66542;SDS011;53395;37.360;-122.046;2023-07-29T10:37:07;19.27;;;4.75;;
66542;SDS011;53395;37.360;-122.046;2023-07-29T10:39:52;17.15;;;3.78;;
66542;SDS011;53395;37.360;-122.046;2023-07-29T10:42:38;20.25;;;4.32;;
66542;SDS011;53395;37.360;-122.046;2023-07-29T10:45:22;16.52;;;4.28;;
66542;SDS011;53395;37.360;-122.046;2023-07-29T10:48:13;22.23;;;4.25;;
66542;SDS011;53395;37.360;-122.046;2023-07-29T10:51:30;16.40;;;4.25;;
66542;SDS011;53395;37.360;-122.046;2023-07-29T10:54:16;15.80;;;4.65;;
66542;SDS011;53395;37.360;-122.046;2023-07-29T10:57:01;14.07;;;4.22;;
66542;SDS011;53395;37.360;-122.046;2023-07-29T11:00:03;11.50;;;3.90;;
66542;SDS011;53395;37.360;-122.046;2023-07-29T11:03:07;17.42;;;4.40;;
66542;SDS011;53395;37.360;-122.046;2023-07-29T11:05:52;21.80;;;4.50;;
66542;SDS011;53395;37.360;-122.046;2023-07-29T11:08:37;16.50;;;4.60;;
66542;SDS011;53395;37.360;-122.046;2023-07-29T11:11:21;18.80;;;4.85;;
66542;SDS011;53395;37.360;-122.046;2023-07-29T11:14:06;14.50;;;4.82;;
66542;SDS011;53395;37.360;-122.046;2023-07-29T11:16:51;16.95;;;4.70;;
66542;SDS011;53395;37.360;-122.046;2023-07-29T11:19:36;13.73;;;4.30;;
66542;SDS011;53395;37.360;-122.046;2023-07-29T11:22:22;16.35;;;4.13;;
66542;SDS011;53395;37.360;-122.046;2023-07-29T11:25:08;14.85;;;4.00;;
66542;SDS011;53395;37.360;-122.046;2023-07-29T11:27:57;14.50;;;3.92;;
66542;SDS011;53395;37.360;-122.046;2023-07-29T11:30:42;13.82;;;4.68;;
66542;SDS011;53395;37.360;-122.046;2023-07-29T11:33:26;21.15;;;4.47;;
66542;SDS011;53395;37.360;-122.046;2023-07-29T11:36:18;16.45;;;4.53;;
66542;SDS011;53395;37.360;-122.046;2023-07-29T11:39:09;14.77;;;4.00;;
66542;SDS011;53395;37.360;-122.046;2023-07-29T11:41:53;13.68;;;3.95;;
66542;SDS011;53395;37.360;-122.046;2023-07-29T11:44:38;19.33;;;5.32;;
66542;SDS011;53395;37.360;-122.046;2023-07-29T11:47:23;20.38;;;4.75;;
66542;SDS011;53395;37.360;-122.046;2023-07-29T11:50:07;14.55;;;4.28;;
66542;SDS011;53395;37.360;-122.046;2023-07-29T11:52:55;14.57;;;4.07;;
66542;SDS011;53395;37.360;-122.046;2023-07-29T11:55:40;15.10;;;4.40;;
66542;SDS011;53395;37.360;-122.046;2023-07-29T11:58:24;16.13;;;4.25;;
66542;SDS011;53395;37.360;-122.046;2023-07-29T12:01:08;14.48;;;4.63;;
66542;SDS011;53395;37.360;-122.046;2023-07-29T12:03:55;15.27;;;4.72;;
66542;SDS011;53395;37.360;-122.046;2023-07-29T12:06:40;14.45;;;4.20;;
66542;SDS011;53395;37.360;-122.046;2023-07-29T12:09:25;14.55;;;4.60;;
66542;SDS011;53395;37.360;-122.046;2023-07-29T12:12:10;13.02;;;4.47;;
66542;SDS011;53395;37.360;-122.046;2023-07-29T12:14:55;14.73;;;4.22;;
66542;SDS011;53395;37.360;-122.046;2023-07-29T12:17:40;12.68;;;3.72;;
66542;SDS011;53395;37.360;-122.046;2023-07-29T12:20:25;10.13;;;3.78;;
66542;SDS011;53395;37.360;-122.046;2023-07-29T12:23:10;15.57;;;4.28;;
66542;SDS011;53395;37.360;-122.046;2023-07-29T12:25:58;11.93;;;4.35;;
66542;SDS011;53395;37.360;-122.046;2023-07-29T12:28:45;12.00;;;3.80;;
66542;SDS011;53395;37.360;-122.046;2023-07-29T12:31:33;15.88;;;4.15;;
66542;SDS011;53395;37.360;-122.046;2023-07-29T12:34:20;14.95;;;4.13;;
66542;SDS011;53395;37.360;-122.046;2023-07-29T12:37:05;16.75;;;4.00;;
66542;SDS011;53395;37.360;-122.046;2023-07-29T12:39:50;14.07;;;4.07;;
66542;SDS011;53395;37.360;-122.046;2023-07-29T12:42:35;13.07;;;3.90;;
66542;SDS011;53395;37.360;-122.046;2023-07-29T12:45:19;15.32;;;4.45;;
66542;SDS011;53395;37.360;-122.046;2023-07-29T12:48:07;14.48;;;4.20;;
66542;SDS011;53395;37.360;-122.046;2023-07-29T12:50:51;14.10;;;4.13;;
66542;SDS011;53395;37.360;-122.046;2023-07-29T12:53:35;13.63;;;4.53;;
66542;SDS011;53395;37.360;-122.046;2023-07-29T12:56:20;12.48;;;4.30;;
66542;SDS011;53395;37.360;-122.046;2023-07-29T12:59:04;14.80;;;5.30;;
66542;SDS011;53395;37.360;-122.046;2023-07-29T13:01:49;15.25;;;5.88;;
66542;SDS011;53395;37.360;-122.046;2023-07-29T13:04:33;16.95;;;5.85;;
66542;SDS011;53395;37.360;-122.046;2023-07-29T13:07:18;19.33;;;6.32;;
66542;SDS011;53395;37.360;-122.046;2023-07-29T13:10:02;15.00;;;6.03;;
66542;SDS011;53395;37.360;-122.046;2023-07-29T13:12:47;19.45;;;6.97;;
66542;SDS011;53395;37.360;-122.046;2023-07-29T13:15:32;17.67;;;6.03;;
66542;SDS011;53395;37.360;-122.046;2023-07-29T13:18:17;18.42;;;6.63;;
66542;SDS011;53395;37.360;-122.046;2023-07-29T13:21:01;17.30;;;7.45;;
66542;SDS011;53395;37.360;-122.046;2023-07-29T13:23:45;20.67;;;7.53;;
66542;SDS011;53395;37.360;-122.046;2023-07-29T13:26:29;15.95;;;6.68;;
66542;SDS011;53395;37.360;-122.046;2023-07-29T13:29:14;17.92;;;6.57;;
66542;SDS011;53395;37.360;-122.046;2023-07-29T13:31:58;18.98;;;6.43;;
66542;SDS011;53395;37.360;-122.046;2023-07-29T13:34:43;24.00;;;7.18;;
66542;SDS011;53395;37.360;-122.046;2023-07-29T13:37:28;17.98;;;6.57;;
66542;SDS011;53395;37.360;-122.046;2023-07-29T13:40:12;21.33;;;6.72;;
66542;SDS011;53395;37.360;-122.046;2023-07-29T13:42:57;19.33;;;7.20;;
66542;SDS011;53395;37.360;-122.046;2023-07-29T13:45:42;21.95;;;7.25;;
66542;SDS011;53395;37.360;-122.046;2023-07-29T13:48:26;16.77;;;6.75;;
66542;SDS011;53395;37.360;-122.046;2023-07-29T13:51:11;18.83;;;6.30;;
66542;SDS011;53395;37.360;-122.046;2023-07-29T13:53:55;16.10;;;6.25;;
66542;SDS011;53395;37.360;-122.046;2023-07-29T13:56:40;18.10;;;6.63;;
66542;SDS011;53395;37.360;-122.046;2023-07-29T13:59:24;16.20;;;5.82;;
66542;SDS011;53395;37.360;-122.046;2023-07-29T14:02:08;21.38;;;6.85;;
66542;SDS011;53395;37.360;-122.046;2023-07-29T14:04:53;17.60;;;6.70;;
66542;SDS011;53395;37.360;-122.046;2023-07-29T14:07:37;20.77;;;6.55;;
66542;SDS011;53395;37.360;-122.046;2023-07-29T14:10:22;16.88;;;6.03;;
66542;SDS011;53395;37.360;-122.046;2023-07-29T14:13:07;17.50;;;6.18;;
66542;SDS011;53395;37.360;-122.046;2023-07-29T14:15:51;16.77;;;6.40;;
66542;SDS011;53395;37.360;-122.046;2023-07-29T14:18:35;24.23;;;6.93;;
66542;SDS011;53395;37.360;-122.046;2023-07-29T14:21:20;19.05;;;6.30;;
66542;SDS011;53395;37.360;-122.046;2023-07-29T14:24:05;14.80;;;5.88;;
66542;SDS011;53395;37.360;-122.046;2023-07-29T14:26:49;15.13;;;5.35;;
66542;SDS011;53395;37.360;-122.046;2023-07-29T14:29:34;22.00;;;5.65;;
66542;SDS011;53395;37.360;-122.046;2023-07-29T14:32:18;17.25;;;6.15;;
66542;SDS011;53395;37.360;-122.046;2023-07-29T14:35:03;17.33;;;5.72;;
66542;SDS011;53395;37.360;-122.046;2023-07-29T14:37:48;14.60;;;5.50;;
66542;SDS011;53395;37.360;-122.046;2023-07-29T14:40:32;16.42;;;5.40;;
66542;SDS011;53395;37.360;-122.046;2023-07-29T14:43:16;15.65;;;4.90;;
66542;SDS011;53395;37.360;-122.046;2023-07-29T14:46:01;17.10;;;5.68;;
66542;SDS011;53395;37.360;-122.046;2023-07-29T14:48:46;13.70;;;4.63;;
66542;SDS011;53395;37.360;-122.046;2023-07-29T14:51:31;17.95;;;5.40;;
66542;SDS011;53395;37.360;-122.046;2023-07-29T14:54:15;15.93;;;5.38;;
66542;SDS011;53395;37.360;-122.046;2023-07-29T14:57:00;12.75;;;4.43;;
66542;SDS011;53395;37.360;-122.046;2023-07-29T14:59:44;15.18;;;5.50;;
66542;SDS011;53395;37.360;-122.046;2023-07-29T15:02:29;13.85;;;5.00;;
66542;SDS011;53395;37.360;-122.046;2023-07-29T15:05:13;15.73;;;5.00;;
66542;SDS011;53395;37.360;-122.046;2023-07-29T15:07:58;14.60;;;4.70;;
66542;SDS011;53395;37.360;-122.046;2023-07-29T15:10:46;14.18;;;4.63;;
66542;SDS011;53395;37.360;-122.046;2023-07-29T15:13:32;15.50;;;4.57;;
66542;SDS011;53395;37.360;-122.046;2023-07-29T15:16:16;15.20;;;4.70;;
66542;SDS011;53395;37.360;-122.046;2023-07-29T15:19:02;11.43;;;4.50;;
66542;SDS011;53395;37.360;-122.046;2023-07-29T15:21:48;11.15;;;4.60;;
66542;SDS011;53395;37.360;-122.046;2023-07-29T15:24:33;15.98;;;5.10;;
66542;SDS011;53395;37.360;-122.046;2023-07-29T15:27:17;14.38;;;4.70;;
66542;SDS011;53395;37.360;-122.046;2023-07-29T15:30:02;9.57;;;4.20;;
66542;SDS011;53395;37.360;-122.046;2023-07-29T15:32:47;11.10;;;4.38;;
66542;SDS011;53395;37.360;-122.046;2023-07-29T15:35:36;9.60;;;4.10;;
66542;SDS011;53395;37.360;-122.046;2023-07-29T15:38:22;13.15;;;4.28;;
66542;SDS011;53395;37.360;-122.046;2023-07-29T15:41:06;16.02;;;4.43;;
66542;SDS011;53395;37.360;-122.046;2023-07-29T15:43:51;12.40;;;4.05;;
66542;SDS011;53395;37.360;-122.046;2023-07-29T15:46:38;9.40;;;4.28;;
66542;SDS011;53395;37.360;-122.046;2023-07-29T15:49:23;13.68;;;4.03;;
66542;SDS011;53395;37.360;-122.046;2023-07-29T15:52:07;12.50;;;4.03;;
66542;SDS011;53395;37.360;-122.046;2023-07-29T15:54:54;11.02;;;3.55;;
66542;SDS011;53395;37.360;-122.046;2023-07-29T15:57:39;12.48;;;4.00;;